Aérodrome :
LOGIN :

S'inscrire | Disclaimer

   EN    FR    IT 

 










Légende :    VFR   VFR Marginal   IFR   IFR Intensif   IFR Très Intensif
Visi : 
Plafond : 
>= 8 km
>= 3000ft
5 à 8 km
1000 à 3000 ft
1500m à 5 km
500 à 1000 ft
800 à 1500m
200 à 500 ft
< 800m
< 200 ft
Symboles :   Orages  Brouillard  Fortes neiges  Fortes précipitations  Vent > 20 kt
SIGMETs :   Divers  Orages  Givrage  Turbulence  Onde Orograph.  Cendres Volcan.







- Altitude de l'aérodrome : 90 ft
- Code IATA : NTE
- Voir les cartes d'approche


LFRS - Nantes

DERNIER METAR :
  • 170330Z AUTO 09001KT CAVOK 13/12 Q1021 NOSIG

METARs EXPIRÉS :
  • 170300Z AUTO VRB02KT CAVOK 13/12 Q1021 NOSIG
  • 170230Z AUTO 06004KT 030V090 CAVOK 12/12 Q1021 NOSIG
  • 170200Z AUTO 00000KT CAVOK 11/10 Q1022 BECMG 08010KT
  • 170130Z AUTO 08003KT CAVOK 12/11 Q1022 NOSIG
  • 170100Z AUTO 00000KT CAVOK 11/11 Q1022 NOSIG

TAF TAF LFRS
Valide du 17 à 00h jusqu'au 18 à 06h UTC


162300Z 1700/1806 VRB03KT CAVOK
BECMG 1703/1706 08010KT
BECMG 1711/1714 14010KT
BECMG 1721/1723 21005KT BKN010
TEMPO 1723/1806 3000 -DZ BKN004
ATIS : +33 2 40 05 12 74
Pas de NOTAMs connus pour ce terrain.
1 SIGMET publié pour la FIR Brest (LFRR) :
 
Orages noyés dans la masse
LFRR SIGMET 1 VALID 170300/170500 LFPW
LFRR BREST FIR/UIR EMBD TS OBS WI N4430 W00530 - N4500 W00800 - N4745 W00800 - N4745 W00445 TOP FL380 MOV NE 15KT NC=



MET'MAP, la Météo Aéronautique d'un coup d'oeil ! - Copyright ORBIFLY Décembre 2007 - Disclaimer

ORBIFLY MET'MAP TEAM :

Programmation & Développement : Alexandra Zaïnal
Conception & Développement : Baudouin d'Aumeries
Co-Programmation & Développement : Marc-Olivier Méhu
Soutien technique & logistique : Manuel Goepfert

Contact : metmap@orbifly.com




SOURCES & CREDITS :

   NOAA